Time;durP1;ratioP1;P1;durP2;ratioP2;P2;SDS_P1;SDS_P2;PMS_P1;PMS_P2;Temp;Humidity;BMP_temperature;BMP_pressure;BME280_temperature;BME280_humidity;BME280_pressure;Samples;Min_cycle;Max_cycle;Signal;HPM_P1;HPM_P2
2023/03/28 00:00:17;;;;;;;5.43;0.50;;;;;;;2.40;95.33;101083.69;5053251;28;20972;-67
2023/03/28 00:02:43;;;;;;;4.20;0.50;;;;;;;2.46;95.25;101088.09;5053383;28;20488;-68
2023/03/28 00:05:10;;;;;;;4.00;0.40;;;;;;;2.41;96.40;101096.00;5053292;28;20849;-67
2023/03/28 00:07:37;;;;;;;4.10;0.60;;;;;;;2.45;95.57;101102.50;5053654;28;20540;-68
2023/03/28 00:10:05;;;;;;;8.27;0.83;;;;;;;2.32;95.13;101098.22;5053474;28;20442;-68
2023/03/28 00:12:31;;;;;;;4.50;0.40;;;;;;;2.25;95.23;101102.84;5053283;28;20448;-67
2023/03/28 00:14:59;;;;;;;4.67;0.60;;;;;;;2.27;95.09;101106.94;5053471;28;20466;-68
2023/03/28 00:17:26;;;;;;;8.30;1.10;;;;;;;2.23;95.57;101105.78;5053157;28;20935;-70
2023/03/28 00:19:53;;;;;;;4.60;0.53;;;;;;;2.27;95.06;101106.13;5053262;28;20445;-68
2023/03/28 00:22:20;;;;;;;4.20;0.80;;;;;;;2.27;94.62;101106.13;5053031;28;20942;-68
2023/03/28 00:24:47;;;;;;;4.20;0.60;;;;;;;2.23;94.67;101118.31;5053298;28;20678;-68
2023/03/28 00:27:14;;;;;;;4.13;0.57;;;;;;;2.12;95.14;101108.44;5053270;28;20474;-68
2023/03/28 00:29:41;;;;;;;4.07;0.50;;;;;;;2.08;95.06;101121.47;5053296;28;20442;-68
2023/03/28 00:32:09;;;;;;;4.40;0.70;;;;;;;2.05;94.90;101129.94;5052650;28;20497;-67
2023/03/28 00:34:37;;;;;;;4.07;0.53;;;;;;;1.95;95.58;101124.34;5053274;28;20477;-68
2023/03/28 00:37:04;;;;;;;5.03;0.70;;;;;;;2.01;95.17;101128.75;5053223;28;20481;-68
2023/03/28 00:39:30;;;;;;;7.80;0.60;;;;;;;1.99;94.93;101125.50;5053062;28;20438;-67
2023/03/28 00:42:00;;;;;;;4.50;0.80;;;;;;;1.88;95.35;101131.66;5052715;28;20999;-67
2023/03/28 00:44:47;;;;;;;4.20;0.40;;;;;;;1.85;95.41;101137.44;5053172;28;20492;-68
2023/03/28 00:47:29;;;;;;;3.90;0.40;;;;;;;1.87;95.25;101138.84;5052776;28;21008;-67
2023/03/28 00:50:01;;;;;;;5.17;0.73;;;;;;;1.83;94.90;101142.22;5052971;28;20445;-69
2023/03/28 00:52:31;;;;;;;4.33;0.60;;;;;;;1.73;94.57;101138.25;5052671;28;20916;-68
2023/03/28 00:54:59;;;;;;;4.30;0.50;;;;;;;1.71;94.58;101152.84;5052908;28;20470;-68
2023/03/28 00:57:28;;;;;;;4.87;0.50;;;;;;;1.79;94.03;101146.38;5052954;28;20446;-68
2023/03/28 00:59:55;;;;;;;4.10;0.50;;;;;;;1.72;94.98;101152.59;5052782;28;20442;-69
2023/03/28 01:02:23;;;;;;;4.50;0.83;;;;;;;1.73;95.54;101154.25;5053018;28;20489;-67
2023/03/28 01:04:56;;;;;;;5.90;0.70;;;;;;;1.74;96.14;101163.88;5052511;28;21041;-68
2023/03/28 01:07:24;;;;;;;4.87;0.80;;;;;;;1.82;95.98;101156.59;5052941;28;20440;-69
2023/03/28 01:09:51;;;;;;;4.83;0.53;;;;;;;1.74;96.56;101161.22;5052871;28;20442;-68
2023/03/28 01:12:20;;;;;;;8.60;0.77;;;;;;;1.71;97.46;101169.69;5052808;28;20890;-68
2023/03/28 01:14:47;;;;;;;6.90;0.53;;;;;;;1.60;97.11;101173.13;5052856;28;20449;-68
2023/03/28 01:17:14;;;;;;;4.73;0.60;;;;;;;1.62;97.14;101181.72;5052590;28;20987;-68
2023/03/28 01:20:04;;;;;;;4.30;0.60;;;;;;;1.65;97.20;101186.63;5056764;28;20438;-68
2023/03/28 01:23:01;;;;;;;4.20;0.60;;;;;;;1.71;97.41;101171.53;5056711;28;20426;-67
2023/03/28 01:25:54;;;;;;;6.00;0.70;;;;;;;1.71;97.83;101191.03;5056683;28;20501;-68
2023/03/28 01:28:35;;;;;;;5.90;0.70;;;;;;;1.79;97.88;101189.91;5056251;28;20533;-68
2023/03/28 01:31:22;;;;;;;5.57;0.67;;;;;;;1.82;97.26;101194.00;5056257;28;20478;-69
2023/03/28 01:34:33;;;;;;;6.53;0.53;;;;;;;1.88;97.31;101187.72;5056570;28;20523;-67
2023/03/28 01:37:28;;;;;;;4.10;0.50;;;;;;;1.86;98.34;101200.47;5046907;28;20904;-69
2023/03/28 01:40:14;;;;;;;4.60;0.80;;;;;;;1.89;98.57;101200.03;5056473;28;20462;-67
2023/03/28 01:42:51;;;;;;;4.37;0.70;;;;;;;1.90;99.34;101212.34;5056131;28;20469;-68
2023/03/28 01:45:22;;;;;;;4.93;1.00;;;;;;;1.97;99.75;101205.06;5056274;28;20482;-68
2023/03/28 01:47:55;;;;;;;4.00;0.57;;;;;;;1.94;100.00;101216.19;5055966;28;20916;-68
2023/03/28 01:50:29;;;;;;;6.40;0.80;;;;;;;1.88;100.00;101217.94;5055782;28;20462;-67
2023/03/28 01:53:03;;;;;;;7.40;1.00;;;;;;;1.96;100.00;101217.59;5055903;28;20449;-68
2023/03/28 01:55:35;;;;;;;4.63;0.80;;;;;;;1.90;100.00;101228.38;5056127;28;20453;-68
2023/03/28 01:58:07;;;;;;;5.43;0.87;;;;;;;1.83;100.00;101227.66;5056201;28;20526;-68
2023/03/28 02:00:42;;;;;;;4.50;0.80;;;;;;;1.75;100.00;101231.47;5055667;28;21005;-68
2023/03/28 02:03:17;;;;;;;5.80;1.13;;;;;;;1.86;100.00;101245.88;5055949;28;20455;-68
2023/03/28 02:05:47;;;;;;;4.00;0.50;;;;;;;1.80;100.00;101249.47;5055632;28;20515;-68
2023/03/28 02:08:17;;;;;;;4.87;0.90;;;;;;;1.65;100.00;101256.03;5055904;28;20513;-69
2023/03/28 02:10:46;;;;;;;4.40;0.80;;;;;;;1.56;100.00;101259.25;5055779;28;20462;-69
2023/03/28 02:13:17;;;;;;;4.20;0.73;;;;;;;1.50;100.00;101251.06;5055944;28;20437;-69
2023/03/28 02:15:48;;;;;;;5.80;0.60;;;;;;;1.45;100.00;101250.13;5056095;28;20423;-68
2023/03/28 02:18:20;;;;;;;5.10;1.00;;;;;;;1.44;100.00;101269.84;5056047;28;20506;-69
2023/03/28 02:20:51;;;;;;;4.00;0.60;;;;;;;1.37;100.00;101261.91;5055806;28;20459;-69
2023/03/28 02:23:24;;;;;;;4.53;0.80;;;;;;;1.27;100.00;101267.75;5055801;28;20422;-70
2023/03/28 02:25:51;;;;;;;4.23;0.80;;;;;;;1.24;100.00;101268.22;5055286;28;20847;-69
2023/03/28 02:28:19;;;;;;;7.60;1.17;;;;;;;1.22;100.00;101266.81;5055284;28;20469;-69
2023/03/28 02:30:46;;;;;;;3.97;0.50;;;;;;;1.15;100.00;101261.56;5055121;28;20484;-68
2023/03/28 02:33:32;;;;;;;6.57;0.80;;;;;;;1.17;100.00;101264.00;5055576;28;20439;-69
2023/03/28 02:36:06;;;;;;;4.63;0.63;;;;;;;1.23;100.00;101258.56;5055506;28;20433;-68
2023/03/28 02:38:44;;;;;;;4.40;0.90;;;;;;;1.30;100.00;101252.38;5054981;28;20431;-69
2023/03/28 02:41:22;;;;;;;6.10;0.93;;;;;;;1.26;100.00;101258.13;5054975;28;20998;-69
2023/03/28 02:44:04;;;;;;;4.77;0.87;;;;;;;1.23;100.00;101253.25;5055274;28;20533;-69
2023/03/28 02:46:36;;;;;;;5.73;1.13;;;;;;;1.23;100.00;101266.56;5055009;28;20963;-69
2023/03/28 02:49:25;;;;;;;7.80;1.93;;;;;;;1.20;100.00;101277.72;5054866;28;20987;-68
2023/03/28 02:52:03;;;;;;;4.93;1.23;;;;;;;1.23;100.00;101273.78;5052352;28;20856;-68
2023/03/28 02:54:36;;;;;;;8.30;1.30;;;;;;;1.21;100.00;101274.00;5054846;28;20431;-67
2023/03/28 02:57:10;;;;;;;7.60;1.50;;;;;;;1.25;100.00;101280.53;5054725;28;20530;-67
2023/03/28 02:59:42;;;;;;;4.70;0.87;;;;;;;1.23;100.00;101290.59;5054641;28;20473;-68
2023/03/28 03:02:10;;;;;;;4.33;0.80;;;;;;;1.22;100.00;101286.31;5054797;28;20646;-68
2023/03/28 03:04:37;;;;;;;13.30;1.03;;;;;;;1.25;100.00;101301.06;5054505;28;20963;-69
2023/03/28 03:07:03;;;;;;;4.73;0.80;;;;;;;1.24;100.00;101304.78;5054754;28;20449;-67
2023/03/28 03:09:32;;;;;;;5.53;1.17;;;;;;;1.20;100.00;101303.59;5054716;28;20446;-66
2023/03/28 03:11:58;;;;;;;4.63;1.07;;;;;;;1.22;100.00;101307.66;5054260;28;20908;-66
2023/03/28 03:14:26;;;;;;;6.77;1.20;;;;;;;1.17;100.00;101310.16;5054598;28;20438;-66
2023/03/28 03:16:53;;;;;;;5.10;1.33;;;;;;;1.14;100.00;101315.13;5054622;28;20448;-66
2023/03/28 03:19:19;;;;;;;5.90;0.80;;;;;;;1.18;100.00;101319.78;5054300;28;20450;-66
2023/03/28 03:21:46;;;;;;;11.50;1.03;;;;;;;1.16;100.00;101313.88;5054426;28;20473;-66
2023/03/28 03:24:13;;;;;;;5.63;1.13;;;;;;;1.20;100.00;101320.41;5054419;28;20453;-65
2023/03/28 03:26:41;;;;;;;6.47;1.07;;;;;;;1.20;100.00;101323.06;5054039;28;20535;-65
2023/03/28 03:29:08;;;;;;;11.03;1.30;;;;;;;1.22;100.00;101325.50;5054093;28;20441;-66
2023/03/28 03:31:34;;;;;;;5.70;0.97;;;;;;;1.21;100.00;101324.69;5053808;28;20477;-66
2023/03/28 03:34:01;;;;;;;4.90;1.20;;;;;;;1.22;100.00;101325.50;5053887;28;20987;-65
2023/03/28 03:36:29;;;;;;;8.43;1.00;;;;;;;1.17;100.00;101328.84;5054186;28;20898;-66
2023/03/28 03:38:56;;;;;;;5.20;1.07;;;;;;;1.15;100.00;101333.59;5054104;28;20446;-68
2023/03/28 03:41:22;;;;;;;6.07;0.70;;;;;;;1.13;100.00;101349.00;5053423;28;20462;-66
2023/03/28 03:43:50;;;;;;;4.80;0.80;;;;;;;1.09;100.00;101350.47;5054091;28;20517;-66
2023/03/28 03:46:17;;;;;;;5.03;0.83;;;;;;;1.06;100.00;101352.75;5053959;28;20489;-66
2023/03/28 03:48:43;;;;;;;5.03;0.77;;;;;;;1.06;100.00;101350.88;5053932;28;20450;-66
2023/03/28 03:51:10;;;;;;;5.23;1.00;;;;;;;1.06;100.00;101358.06;5053855;28;20458;-67
2023/03/28 03:53:38;;;;;;;4.90;0.93;;;;;;;1.03;100.00;101359.34;5053514;28;20538;-66
2023/03/28 03:56:06;;;;;;;4.87;0.83;;;;;;;1.01;100.00;101372.06;5053807;28;20525;-66
2023/03/28 03:58:32;;;;;;;5.33;0.90;;;;;;;0.96;100.00;101367.38;5053793;28;20540;-67
2023/03/28 04:01:00;;;;;;;8.17;0.93;;;;;;;0.97;100.00;101369.03;5053634;28;20459;-66
2023/03/28 04:03:27;;;;;;;7.23;1.23;;;;;;;0.93;100.00;101372.34;5054019;28;20477;-66
2023/03/28 04:05:56;;;;;;;5.93;0.87;;;;;;;0.93;100.00;101369.66;5053418;28;20904;-67
2023/03/28 04:08:23;;;;;;;4.93;0.80;;;;;;;0.93;100.00;101375.00;5053362;28;20938;-66
2023/03/28 04:10:50;;;;;;;7.70;0.73;;;;;;;0.90;100.00;101372.78;5053498;28;20450;-67
2023/03/28 04:13:16;;;;;;;4.70;0.90;;;;;;;0.89;100.00;101385.31;5053539;28;20434;-66
2023/03/28 04:15:43;;;;;;;11.00;1.77;;;;;;;0.95;100.00;101388.94;5053202;28;20445;-67
2023/03/28 04:18:11;;;;;;;16.30;1.47;;;;;;;0.89;100.00;101395.16;5053146;28;20827;-66
2023/03/28 04:20:39;;;;;;;5.90;1.10;;;;;;;0.86;100.00;101406.25;5052989;28;20490;-67
2023/03/28 04:23:07;;;;;;;4.20;0.67;;;;;;;0.78;100.00;101402.00;5053324;28;20444;-67
2023/03/28 04:25:33;;;;;;;4.40;0.70;;;;;;;0.73;100.00;101401.84;5053210;28;20474;-66
2023/03/28 04:28:01;;;;;;;9.10;1.00;;;;;;;0.78;100.00;101415.31;5052903;28;20446;-67
2023/03/28 04:30:27;;;;;;;10.57;1.57;;;;;;;0.72;100.00;101419.69;5053000;28;20478;-67
2023/03/28 04:32:54;;;;;;;4.00;0.50;;;;;;;0.74;100.00;101422.13;5053229;28;20430;-68
2023/03/28 04:35:23;;;;;;;5.40;0.90;;;;;;;0.74;100.00;101425.59;5053252;28;20517;-66
2023/03/28 04:37:50;;;;;;;4.70;0.93;;;;;;;0.72;100.00;101435.69;5052938;28;21013;-66
2023/03/28 04:40:16;;;;;;;4.70;0.90;;;;;;;0.78;100.00;101436.66;5052909;28;20549;-66
2023/03/28 04:42:43;;;;;;;8.53;1.10;;;;;;;0.81;100.00;101443.44;5053000;28;20542;-66
2023/03/28 04:45:10;;;;;;;4.53;0.70;;;;;;;0.84;100.00;101448.31;5052623;28;20580;-67
2023/03/28 04:47:38;;;;;;;5.93;0.90;;;;;;;0.77;100.00;101448.38;5052878;28;20828;-67
2023/03/28 04:50:06;;;;;;;6.20;1.07;;;;;;;0.75;100.00;101455.75;5052594;28;20461;-66
2023/03/28 04:52:34;;;;;;;4.43;0.63;;;;;;;0.79;100.00;101458.81;5051337;28;20450;-67
2023/03/28 04:55:01;;;;;;;6.60;1.43;;;;;;;0.84;100.00;101458.97;5052654;28;20446;-67
2023/03/28 04:57:28;;;;;;;6.37;0.90;;;;;;;0.85;100.00;101468.63;5052747;28;20474;-67
2023/03/28 04:59:54;;;;;;;4.97;0.83;;;;;;;0.83;100.00;101476.00;5052552;28;20529;-67
2023/03/28 05:02:21;;;;;;;5.60;1.27;;;;;;;0.88;100.00;101482.31;5052976;28;20444;-66
2023/03/28 05:04:48;;;;;;;4.77;0.80;;;;;;;0.86;100.00;101472.94;5052902;28;20496;-67
2023/03/28 05:07:14;;;;;;;5.00;1.37;;;;;;;0.85;100.00;101485.44;5052523;28;20948;-66
2023/03/28 05:09:43;;;;;;;8.80;1.30;;;;;;;0.90;100.00;101490.13;5052703;28;20430;-67
2023/03/28 05:12:10;;;;;;;7.30;1.30;;;;;;;0.92;100.00;101493.38;5052677;28;20472;-66
2023/03/28 05:14:36;;;;;;;5.30;1.20;;;;;;;0.91;100.00;101494.44;5052858;28;20445;-65
2023/03/28 05:17:03;;;;;;;4.30;0.60;;;;;;;0.99;100.00;101508.34;5052395;28;20525;-66
2023/03/28 05:19:30;;;;;;;4.47;0.80;;;;;;;1.01;100.00;101526.78;5052749;28;20439;-66
2023/03/28 05:21:56;;;;;;;5.00;0.57;;;;;;;0.92;100.00;101536.06;5052374;28;20979;-67
2023/03/28 05:24:23;;;;;;;7.60;1.07;;;;;;;0.98;100.00;101527.22;5052687;28;20454;-66
2023/03/28 05:26:51;;;;;;;4.40;0.77;;;;;;;1.07;100.00;101533.94;5054216;28;20492;-66
2023/03/28 05:29:17;;;;;;;9.80;1.10;;;;;;;1.15;100.00;101522.19;5052284;28;20992;-67
2023/03/28 05:31:44;;;;;;;6.00;0.87;;;;;;;1.18;99.30;101530.56;5052252;28;20828;-65
2023/03/28 05:34:10;;;;;;;7.00;1.43;;;;;;;1.13;99.23;101530.41;5052580;28;20438;-67
2023/03/28 05:36:37;;;;;;;6.43;0.90;;;;;;;1.13;99.14;101533.06;5052228;28;20979;-66
2023/03/28 05:39:04;;;;;;;4.67;0.67;;;;;;;1.06;98.95;101537.63;5052313;28;20966;-67
2023/03/28 05:41:30;;;;;;;7.73;0.87;;;;;;;1.07;98.27;101538.47;5052391;28;20466;-66
2023/03/28 05:43:58;;;;;;;8.67;1.27;;;;;;;1.07;98.17;101541.13;5052601;28;20469;-71
2023/03/28 05:46:25;;;;;;;6.43;1.17;;;;;;;0.99;98.12;101551.00;5052847;28;20479;-70
2023/03/28 05:48:51;;;;;;;7.57;1.13;;;;;;;1.03;98.11;101545.25;5052623;28;20533;-70
2023/03/28 05:51:18;;;;;;;4.80;1.07;;;;;;;1.04;98.40;101555.69;5052150;28;20469;-66
2023/03/28 05:53:44;;;;;;;4.70;0.97;;;;;;;1.04;98.14;101561.03;5052163;28;20443;-69
2023/03/28 05:56:11;;;;;;;4.30;0.70;;;;;;;1.04;97.59;101565.56;5052470;28;20438;-68
2023/03/28 05:58:39;;;;;;;4.50;0.90;;;;;;;1.05;97.71;101568.00;5052608;28;20868;-69
2023/03/28 06:01:08;;;;;;;4.87;0.80;;;;;;;1.04;97.94;101563.69;5052221;28;20462;-67
2023/03/28 06:03:38;;;;;;;6.70;1.30;;;;;;;1.07;98.28;101571.28;5052549;28;21013;-68
2023/03/28 06:06:06;;;;;;;7.93;1.00;;;;;;;1.07;98.51;101570.47;5055860;28;20470;-68
2023/03/28 06:08:32;;;;;;;4.53;0.83;;;;;;;1.06;97.70;101580.31;5055592;28;20537;-68
2023/03/28 06:11:00;;;;;;;5.30;1.27;;;;;;;1.14;97.13;101581.91;5055445;28;21003;-67
2023/03/28 06:13:27;;;;;;;4.73;0.90;;;;;;;1.25;96.34;101584.72;5055557;28;20962;-66
2023/03/28 06:15:54;;;;;;;4.83;0.73;;;;;;;1.25;96.20;101584.72;5055776;28;20470;-70
2023/03/28 06:18:22;;;;;;;5.87;0.80;;;;;;;1.25;96.99;101587.41;5055637;28;20439;-67
2023/03/28 06:20:49;;;;;;;5.70;1.10;;;;;;;1.27;96.15;101597.84;5055180;28;20492;-66
2023/03/28 06:23:16;;;;;;;8.13;1.03;;;;;;;1.19;95.76;101588.22;5055644;28;20567;-69
2023/03/28 06:25:43;;;;;;;4.77;1.20;;;;;;;1.30;95.83;101592.09;5055493;28;20486;-68
2023/03/28 06:28:10;;;;;;;5.13;0.70;;;;;;;1.38;95.13;101599.84;5055516;28;20438;-68
2023/03/28 06:30:38;;;;;;;4.57;0.67;;;;;;;1.41;93.82;101601.25;5055084;28;20521;-68
2023/03/28 06:33:05;;;;;;;4.20;0.60;;;;;;;1.48;93.87;101604.72;5055461;28;20450;-68
2023/03/28 06:35:33;;;;;;;6.73;1.20;;;;;;;1.52;93.58;101611.25;5055373;28;20442;-67
2023/03/28 06:38:00;;;;;;;6.07;1.30;;;;;;;1.49;93.65;101612.50;5055294;28;20450;-67
2023/03/28 06:40:27;;;;;;;4.20;0.80;;;;;;;1.50;93.49;101615.97;5054955;28;20843;-67
2023/03/28 06:42:53;;;;;;;7.50;1.37;;;;;;;1.50;92.36;101619.47;5055285;28;20474;-67
2023/03/28 06:45:20;;;;;;;4.37;0.70;;;;;;;1.60;92.47;101621.69;5055037;28;20485;-67
2023/03/28 06:47:49;;;;;;;5.43;1.03;;;;;;;1.64;90.94;101630.91;5055309;28;20544;-66
2023/03/28 06:50:16;;;;;;;4.57;0.80;;;;;;;1.70;91.07;101632.69;5055052;28;20848;-66
2023/03/28 06:52:44;;;;;;;5.30;1.30;;;;;;;1.75;90.66;101626.69;5054934;28;20525;-66
2023/03/28 06:55:11;;;;;;;6.63;1.47;;;;;;;1.62;90.63;101637.47;5054997;28;20442;-66
2023/03/28 06:57:37;;;;;;;4.07;0.73;;;;;;;1.68;90.60;101637.44;5054896;28;20445;-66
2023/03/28 07:00:06;;;;;;;4.30;0.73;;;;;;;1.80;91.03;101642.91;5054720;28;20449;-66
2023/03/28 07:02:32;;;;;;;5.00;0.90;;;;;;;1.98;88.26;101647.50;5054807;28;20443;-66
2023/03/28 07:04:59;;;;;;;6.10;1.30;;;;;;;2.03;86.06;101644.97;5054924;28;20438;-67
2023/03/28 07:07:25;;;;;;;5.20;1.03;;;;;;;2.05;86.50;101652.78;5054757;28;20486;-66
2023/03/28 07:09:53;;;;;;;5.97;1.30;;;;;;;1.98;86.79;101666.19;5054410;28;20530;-67
2023/03/28 07:12:20;;;;;;;4.10;0.50;;;;;;;1.98;86.05;101656.31;5054390;28;20437;-66
2023/03/28 07:14:47;;;;;;;4.80;0.80;;;;;;;2.02;86.09;101659.38;5054139;28;20541;-66
2023/03/28 07:17:14;;;;;;;4.63;0.90;;;;;;;2.10;84.63;101659.13;5054061;28;20485;-69
2023/03/28 07:19:40;;;;;;;4.90;1.00;;;;;;;2.15;85.38;101666.47;5054590;28;20520;-70
2023/03/28 07:22:07;;;;;;;5.27;1.03;;;;;;;2.13;85.40;101660.53;5054227;28;21022;-72
2023/03/28 07:24:34;;;;;;;5.37;1.03;;;;;;;2.28;84.63;101659.16;5054560;28;20446;-69
2023/03/28 07:27:02;;;;;;;5.37;0.87;;;;;;;2.40;82.27;101661.94;5054382;28;20490;-68
2023/03/28 07:29:29;;;;;;;4.67;1.03;;;;;;;2.32;84.58;101669.41;5054310;28;20450;-70
2023/03/28 07:31:56;;;;;;;5.40;1.00;;;;;;;2.33;83.43;101671.88;5053795;28;20506;-67
2023/03/28 07:34:22;;;;;;;5.03;0.77;;;;;;;2.40;83.18;101666.47;5054236;28;20445;-68
2023/03/28 07:36:49;;;;;;;5.70;0.97;;;;;;;2.47;84.39;101676.03;5054130;28;20449;-69
2023/03/28 07:39:15;;;;;;;6.73;1.00;;;;;;;2.58;79.06;101687.91;5054124;28;20453;-69
2023/03/28 07:41:42;;;;;;;4.70;0.57;;;;;;;2.63;79.11;101688.03;5054056;28;20557;-69
2023/03/28 07:44:10;;;;;;;4.07;0.57;;;;;;;2.57;82.60;101691.63;5054083;28;20442;-69
2023/03/28 07:46:37;;;;;;;10.73;1.00;;;;;;;2.65;81.24;101693.16;5053765;28;20478;-70
2023/03/28 07:49:04;;;;;;;4.83;0.80;;;;;;;2.78;80.25;101695.72;5054018;28;20449;-69
2023/03/28 07:51:30;;;;;;;4.53;0.70;;;;;;;2.80;79.46;101699.00;5053887;28;20520;-70
2023/03/28 07:53:57;;;;;;;5.73;0.97;;;;;;;2.97;76.88;101699.22;5053887;28;20448;-71
2023/03/28 07:56:23;;;;;;;4.50;0.90;;;;;;;2.90;78.24;101707.31;5053874;28;20498;-70
2023/03/28 07:58:50;;;;;;;4.40;0.63;;;;;;;2.99;76.13;101708.66;5053896;28;20442;-69
2023/03/28 08:01:18;;;;;;;6.87;0.90;;;;;;;3.08;75.16;101711.84;5053662;28;20462;-69
2023/03/28 08:03:45;;;;;;;6.10;1.17;;;;;;;3.16;75.05;101718.78;5053728;28;20442;-70
2023/03/28 08:06:12;;;;;;;4.70;0.90;;;;;;;3.17;74.63;101720.41;5053256;28;20482;-68
2023/03/28 08:08:38;;;;;;;4.70;0.97;;;;;;;3.26;73.24;101719.06;5053713;28;20453;-67
2023/03/28 08:11:06;;;;;;;6.70;0.77;;;;;;;3.17;72.75;101721.22;5053468;28;20902;-67
2023/03/28 08:13:33;;;;;;;17.03;1.07;;;;;;;3.31;71.59;101727.25;5053466;28;20442;-67
2023/03/28 08:15:59;;;;;;;5.63;1.10;;;;;;;3.35;71.11;101728.44;5053490;28;20462;-67
2023/03/28 08:18:27;;;;;;;8.13;0.83;;;;;;;3.31;68.13;101731.78;5053192;28;20955;-71
2023/03/28 08:20:59;;;;;;;4.80;0.60;;;;;;;3.22;70.40;101740.09;5053281;28;20561;-71
2023/03/28 08:23:26;;;;;;;4.70;0.80;;;;;;;3.38;69.00;101743.25;5053197;28;20893;-71
2023/03/28 08:25:53;;;;;;;6.50;0.80;;;;;;;3.36;70.25;101739.94;5052918;28;20474;-72
2023/03/28 08:28:21;;;;;;;4.70;0.60;;;;;;;3.37;69.59;101736.25;5052717;28;20446;-66
2023/03/28 08:30:47;;;;;;;5.77;1.30;;;;;;;3.42;68.63;101739.88;5053073;28;20490;-66
2023/03/28 08:33:14;;;;;;;4.30;0.50;;;;;;;3.62;70.27;101739.63;5053235;28;20449;-66
2023/03/28 08:35:42;;;;;;;4.87;0.77;;;;;;;3.80;70.10;101738.75;5052798;28;20453;-65
2023/03/28 08:38:08;;;;;;;6.40;0.83;;;;;;;3.84;66.82;101739.13;5052980;28;20481;-66
2023/03/28 08:40:38;;;;;;;4.87;1.03;;;;;;;3.95;65.87;101749.91;5052677;28;21047;-65
2023/03/28 08:43:24;;;;;;;4.53;0.60;;;;;;;3.95;61.14;101749.91;5053064;28;20449;-66
2023/03/28 08:45:53;;;;;;;4.80;0.90;;;;;;;3.82;63.98;101744.72;5067100;28;20427;-66
2023/03/28 08:48:25;;;;;;;5.20;0.70;;;;;;;3.92;64.51;101760.25;5053035;28;20563;-65
2023/03/28 08:50:59;;;;;;;4.40;0.60;;;;;;;4.09;62.36;101758.56;5052816;28;20470;-66
2023/03/28 08:53:33;;;;;;;4.50;0.73;;;;;;;4.10;61.95;101752.16;5053032;28;20430;-65
2023/03/28 08:56:02;;;;;;;4.70;0.60;;;;;;;4.19;61.29;101780.28;5053274;28;20439;-67
2023/03/28 08:58:34;;;;;;;5.63;0.60;;;;;;;4.21;56.98;101767.47;5052964;28;20541;-67
2023/03/28 09:01:02;;;;;;;4.60;0.67;;;;;;;4.10;57.61;101768.25;5052548;28;20493;-66
2023/03/28 09:03:29;;;;;;;4.30;0.40;;;;;;;4.27;57.62;101779.13;5052711;28;20446;-66
2023/03/28 09:06:03;;;;;;;4.80;0.70;;;;;;;4.45;56.90;101778.25;5052786;28;20528;-67
2023/03/28 09:08:52;;;;;;;6.73;0.80;;;;;;;4.50;57.68;101779.19;5052520;28;21078;-67
2023/03/28 09:11:30;;;;;;;5.07;0.40;;;;;;;4.48;56.81;101789.34;5052503;28;20494;-66
2023/03/28 09:14:13;;;;;;;4.20;0.40;;;;;;;4.36;58.31;101795.72;5052814;28;20428;-65
2023/03/28 09:16:53;;;;;;;4.67;0.70;;;;;;;4.34;56.56;101785.22;5052745;28;20509;-66
2023/03/28 09:19:34;;;;;;;5.93;0.87;;;;;;;4.51;59.78;101782.69;5052852;28;20441;-66
2023/03/28 09:22:16;;;;;;;5.53;0.80;;;;;;;4.75;60.13;101781.66;5052396;28;20469;-66
2023/03/28 09:24:55;;;;;;;4.40;0.60;;;;;;;4.96;55.04;101793.72;5052505;28;20521;-66
2023/03/28 09:27:27;;;;;;;4.50;0.60;;;;;;;5.19;54.44;101797.44;5052538;28;21060;-65
2023/03/28 09:29:56;;;;;;;4.50;0.67;;;;;;;5.02;49.92;101805.38;5052486;28;20430;-67
2023/03/28 09:32:28;;;;;;;4.20;0.50;;;;;;;4.86;50.74;101798.81;5052631;28;20423;-66
2023/03/28 09:34:55;;;;;;;4.20;0.50;;;;;;;4.88;51.79;101803.97;5052553;28;20517;-67
2023/03/28 09:37:29;;;;;;;4.30;0.40;;;;;;;5.02;50.61;101818.81;5052213;28;20963;-66
2023/03/28 09:40:00;;;;;;;4.30;0.47;;;;;;;5.15;50.12;101810.50;5055083;28;20433;-69
2023/03/28 09:42:33;;;;;;;4.30;0.60;;;;;;;5.20;51.45;101821.38;5056363;28;20438;-68
2023/03/28 09:45:07;;;;;;;4.50;0.60;;;;;;;5.29;48.69;101827.19;5056394;28;20517;-69
2023/03/28 09:47:34;;;;;;;4.70;0.67;;;;;;;5.38;49.43;101820.41;5055913;28;20470;-67
2023/03/28 09:50:00;;;;;;;4.20;0.40;;;;;;;5.48;49.96;101819.81;5056096;28;20812;-67
2023/03/28 09:52:30;;;;;;;4.17;0.50;;;;;;;5.44;51.41;101824.81;5056180;28;20483;-66
2023/03/28 09:54:59;;;;;;;4.33;0.50;;;;;;;5.41;50.56;101822.63;5055925;28;20445;-68
2023/03/28 09:57:26;;;;;;;4.10;0.40;;;;;;;5.72;48.71;101821.41;5056283;28;20486;-67
2023/03/28 09:59:52;;;;;;;5.10;0.70;;;;;;;5.85;46.61;101827.56;5056062;28;20480;-68
2023/03/28 10:02:27;;;;;;;4.40;0.50;;;;;;;5.89;45.68;101816.09;5056107;28;20528;-66
2023/03/28 10:04:53;;;;;;;4.87;0.70;;;;;;;5.76;46.21;101822.56;5055767;28;20784;-68
2023/03/28 10:07:34;;;;;;;4.57;0.60;;;;;;;5.94;46.62;101834.22;5055509;28;21037;-67
2023/03/28 10:10:10;;;;;;;5.10;0.70;;;;;;;6.00;45.35;101830.56;5055895;28;20453;-67
2023/03/28 10:12:40;;;;;;;4.30;0.50;;;;;;;5.77;44.86;101842.19;5055854;28;20426;-67
2023/03/28 10:15:32;;;;;;;4.20;0.40;;;;;;;5.61;46.40;101826.78;5055797;28;20541;-67
2023/03/28 10:18:01;;;;;;;4.30;0.50;;;;;;;5.69;47.23;101829.94;5055452;28;20858;-68
2023/03/28 10:20:32;;;;;;;4.63;0.53;;;;;;;5.89;46.13;101818.78;5055601;28;20465;-68
2023/03/28 10:23:00;;;;;;;4.43;0.47;;;;;;;5.99;44.86;101818.19;5055425;28;20988;-69
2023/03/28 10:25:36;;;;;;;4.87;0.73;;;;;;;6.00;45.08;101828.69;5055417;28;20469;-68
2023/03/28 10:28:06;;;;;;;4.50;0.63;;;;;;;5.92;44.18;101833.63;5054996;28;20561;-68
2023/03/28 10:30:34;;;;;;;6.97;0.60;;;;;;;6.01;45.19;101826.81;5054673;28;20929;-67
2023/03/28 10:33:09;;;;;;;4.50;0.50;;;;;;;6.01;46.31;101829.50;5054867;28;20442;-68
2023/03/28 10:35:40;;;;;;;4.10;0.40;;;;;;;6.00;47.68;101827.88;5054534;28;20446;-68
2023/03/28 10:38:14;;;;;;;4.80;0.80;;;;;;;6.04;45.54;101829.84;5054944;28;20856;-67
2023/03/28 10:40:40;;;;;;;4.20;0.40;;;;;;;5.99;46.00;101840.53;5054733;28;20466;-67
2023/03/28 10:43:12;;;;;;;7.27;0.60;;;;;;;6.19;45.94;101833.88;5054770;28;20533;-68
2023/03/28 10:45:41;;;;;;;4.50;0.60;;;;;;;6.44;45.97;101823.59;5054958;28;20510;-70
2023/03/28 10:48:14;;;;;;;4.40;0.50;;;;;;;6.56;44.41;101813.59;5054346;28;20478;-66
2023/03/28 10:50:44;;;;;;;4.20;0.40;;;;;;;6.28;45.03;101830.56;5054387;28;20470;-68
2023/03/28 10:53:29;;;;;;;4.50;0.53;;;;;;;6.05;46.43;101834.16;5054443;28;20537;-66
2023/03/28 10:56:09;;;;;;;4.40;0.50;;;;;;;6.25;45.97;101816.81;5054627;28;20437;-68
2023/03/28 10:58:39;;;;;;;4.43;0.50;;;;;;;6.36;45.82;101831.25;5054416;28;20437;-67
2023/03/28 11:01:09;;;;;;;4.50;0.50;;;;;;;6.45;44.86;101821.72;5054034;28;20462;-66
2023/03/28 11:03:55;;;;;;;4.20;0.50;;;;;;;6.47;45.66;101833.06;5053728;28;20482;-68
2023/03/28 11:06:30;;;;;;;4.40;0.60;;;;;;;6.72;48.31;101833.47;5053864;28;20437;-68
2023/03/28 11:09:07;;;;;;;4.80;0.60;;;;;;;7.10;45.95;101829.22;5053783;28;20484;-68
2023/03/28 11:11:48;;;;;;;4.40;0.50;;;;;;;7.51;45.69;101836.00;5053971;28;20465;-69
2023/03/28 11:14:24;;;;;;;4.33;0.50;;;;;;;7.68;43.24;101852.13;5054082;28;20423;-69
2023/03/28 11:16:58;;;;;;;4.40;0.60;;;;;;;7.73;42.58;101841.41;5053877;28;20426;-67
2023/03/28 11:19:42;;;;;;;4.40;0.50;;;;;;;7.57;41.88;101834.22;5054044;28;20430;-69
2023/03/28 11:22:20;;;;;;;4.20;0.40;;;;;;;7.79;42.72;101844.97;5053942;28;20462;-67
2023/03/28 11:24:57;;;;;;;4.57;0.53;;;;;;;8.27;40.68;101854.16;5053951;28;20470;-68
2023/03/28 11:27:30;;;;;;;4.20;0.50;;;;;;;8.64;40.57;101843.50;5053859;28;20837;-68
2023/03/28 11:30:02;;;;;;;4.50;0.40;;;;;;;8.90;40.02;101857.19;5053392;28;20454;-70
2023/03/28 11:32:34;;;;;;;4.20;0.40;;;;;;;8.75;39.71;101852.50;5053851;28;20426;-67
2023/03/28 11:35:12;;;;;;;4.80;0.60;;;;;;;8.94;41.06;101858.31;5053379;28;20422;-69
2023/03/28 11:37:43;;;;;;;4.20;0.40;;;;;;;9.49;38.79;101855.16;5053854;28;20804;-68
2023/03/28 11:40:22;;;;;;;4.20;0.50;;;;;;;10.59;37.61;101856.91;5053588;28;20798;-67
2023/03/28 11:42:53;;;;;;;4.20;0.40;;;;;;;11.60;36.03;101853.28;5053492;28;20421;-67
2023/03/28 11:45:27;;;;;;;4.40;0.50;;;;;;;12.67;34.48;101861.97;5053733;28;20431;-67